Terminal Aerodrome Forecast
Issued by NWS

Home | Current Version | Previous Version | Text Only | Print | Product List | Glossary On
Versions: 1 2 3 4 5 6 7 8 9 10 11 12 13 14 15 16
873
FTUS44 KLUB 032321
TAFCDS
TAF
KCDS 032321Z 0400/0424 04005KT 2SM -SHRA BR BKN005 OVC008
     FM041300 35010KT 6SM BR FEW007 SCT015 BKN050
     FM041600 02011KT P6SM FEW030 SCT060=

USA.gov is the U.S. government's official web portal to all federal, state and local government web resources and services.